Time;durP1;ratioP1;P1;durP2;ratioP2;P2;SDS_P1;SDS_P2;PMS_P1;PMS_P2;Temp;Humidity;BMP_temperature;BMP_pressure;BME280_temperature;BME280_humidity;BME280_pressure;Samples;Min_cycle;Max_cycle;Signal;HPM_P1;HPM_P2
2022/08/03 00:01:36;;;;;;;11.57;1.17;;;;;;;22.21;79.66;100952.13;7385651;19;20018;-66
2022/08/03 00:04:05;;;;;;;11.45;2.20;;;;;;;22.21;80.54;100952.13;7382002;19;20019;-66
2022/08/03 00:06:33;;;;;;;6.38;0.80;;;;;;;22.19;79.98;100948.88;7379739;19;20037;-66
2022/08/03 00:09:06;;;;;;;5.50;0.82;;;;;;;22.12;80.00;100948.94;7383423;19;20118;-66
2022/08/03 00:11:33;;;;;;;10.25;0.82;;;;;;;22.09;79.82;100946.72;7382349;19;20037;-66
2022/08/03 00:14:01;;;;;;;8.52;0.90;;;;;;;22.05;80.19;100942.84;7385192;19;20355;-67
2022/08/03 00:16:29;;;;;;;10.48;1.08;;;;;;;22.03;80.53;100944.94;7382385;19;20021;-66
2022/08/03 00:18:56;;;;;;;15.77;1.98;;;;;;;22.04;80.63;100943.91;7380579;19;20014;-66
2022/08/03 00:21:27;;;;;;;6.18;1.20;;;;;;;22.04;80.81;100938.56;7382138;19;20014;-66
2022/08/03 00:23:54;;;;;;;5.35;1.15;;;;;;;22.05;80.41;100942.84;7388746;19;20021;-71
2022/08/03 00:26:21;;;;;;;7.88;1.15;;;;;;;22.04;80.47;100946.59;7392667;19;20527;-67
2022/08/03 00:28:49;;;;;;;8.45;0.90;;;;;;;22.05;80.66;100942.03;7390870;19;20011;-67
2022/08/03 00:31:16;;;;;;;7.80;1.75;;;;;;;22.01;80.38;100935.47;7389736;19;20038;-67
2022/08/03 00:34:03;;;;;;;10.32;2.45;;;;;;;21.99;80.56;100941.06;7387682;19;20395;-68
2022/08/03 00:36:32;;;;;;;6.88;1.27;;;;;;;21.99;80.84;100943.72;7390242;19;20111;-68
2022/08/03 00:39:00;;;;;;;10.00;1.17;;;;;;;21.95;80.99;100933.69;7388557;19;20011;-66
2022/08/03 00:41:27;;;;;;;6.78;0.75;;;;;;;21.92;80.70;100936.81;7386819;19;20452;-67
2022/08/03 00:43:54;;;;;;;15.85;1.42;;;;;;;21.89;80.89;100926.53;7391090;19;20086;-66
2022/08/03 00:46:21;;;;;;;5.82;0.75;;;;;;;21.87;81.22;100926.75;7391841;19;20018;-67
2022/08/03 00:48:49;;;;;;;10.55;1.08;;;;;;;21.84;81.12;100929.88;7387061;19;20026;-66
2022/08/03 00:51:17;;;;;;;13.43;4.38;;;;;;;21.85;81.69;100930.69;7392158;19;20033;-67
2022/08/03 00:53:44;;;;;;;8.13;0.90;;;;;;;21.86;82.56;100930.47;7390418;19;20035;-67
2022/08/03 00:56:14;;;;;;;12.80;3.60;;;;;;;21.86;81.70;100919.75;7391282;19;20018;-66
2022/08/03 00:58:43;;;;;;;9.15;1.90;;;;;;;21.84;81.59;100929.88;7385443;19;20999;-66
2022/08/03 01:01:11;;;;;;;8.13;0.90;;;;;;;21.84;81.29;100931.75;7386914;19;20022;-68
2022/08/03 01:03:39;;;;;;;16.02;4.18;;;;;;;21.86;81.16;100926.97;7382442;19;20021;-66
2022/08/03 01:06:16;;;;;;;6.60;0.93;;;;;;;21.85;80.88;100926.16;7387057;19;20036;-66
2022/08/03 01:08:56;;;;;;;14.20;2.17;;;;;;;21.85;81.43;100931.50;7389236;19;20380;-68
2022/08/03 01:11:41;;;;;;;6.82;0.95;;;;;;;21.82;81.92;100925.78;7387883;19;20326;-69
2022/08/03 01:14:38;;;;;;;5.32;1.00;;;;;;;21.82;81.11;100926.63;7384691;19;20382;-66
2022/08/03 01:17:21;;;;;;;7.22;1.00;;;;;;;21.76;81.28;100927.50;7388749;19;20323;-66
2022/08/03 01:19:48;;;;;;;4.30;0.60;;;;;;;21.73;81.22;100923.41;7386343;19;20344;-66
2022/08/03 01:22:52;;;;;;;7.63;1.13;;;;;;;21.71;81.59;100930.84;7386918;19;20082;-66
2022/08/03 01:25:56;;;;;;;12.18;2.28;;;;;;;21.65;81.82;100937.09;7386493;19;20010;-67
2022/08/03 01:29:07;;;;;;;9.57;1.10;;;;;;;21.60;82.53;100936.13;7386524;19;20023;-66
2022/08/03 01:31:43;;;;;;;7.13;1.40;;;;;;;21.56;81.74;100929.56;7384111;19;20465;-66
2022/08/03 01:34:39;;;;;;;6.38;0.85;;;;;;;21.44;82.23;100937.53;7384521;19;20023;-66
2022/08/03 01:37:09;;;;;;;8.70;1.70;;;;;;;21.39;82.66;100940.03;7383939;19;20014;-66
2022/08/03 01:39:38;;;;;;;9.93;1.70;;;;;;;21.39;82.72;100940.03;7386870;19;20011;-66
2022/08/03 01:42:09;;;;;;;13.77;1.02;;;;;;;21.41;82.95;100935.28;7385905;19;20202;-67
2022/08/03 01:44:39;;;;;;;7.95;0.98;;;;;;;21.40;83.15;100939.00;7386355;19;20014;-67
2022/08/03 01:47:07;;;;;;;6.07;0.80;;;;;;;21.40;83.07;100939.00;7385344;19;20010;-68
2022/08/03 01:49:44;;;;;;;10.07;0.88;;;;;;;21.41;82.79;100934.47;7382797;19;20018;-66
2022/08/03 01:52:13;;;;;;;7.43;1.48;;;;;;;21.42;82.90;100938.78;7384606;19;20021;-66
2022/08/03 01:54:43;;;;;;;6.90;1.10;;;;;;;21.44;82.95;100937.53;7384112;19;20010;-68
2022/08/03 01:57:12;;;;;;;8.35;0.90;;;;;;;21.44;82.42;100942.88;7380319;19;20015;-67
2022/08/03 01:59:41;;;;;;;8.13;1.10;;;;;;;21.43;82.65;100940.44;7386363;19;20015;-67
2022/08/03 02:02:12;;;;;;;7.40;1.30;;;;;;;21.41;82.65;100940.66;7371479;19;20020;-65
2022/08/03 02:05:02;;;;;;;9.80;1.27;;;;;;;21.40;82.85;100941.69;7378329;19;20025;-65
2022/08/03 02:07:31;;;;;;;6.85;1.05;;;;;;;21.40;82.45;100938.19;7385846;19;20033;-65
2022/08/03 02:10:00;;;;;;;10.75;1.10;;;;;;;21.38;82.62;100935.75;7385730;19;20466;-65
2022/08/03 02:12:34;;;;;;;6.72;0.93;;;;;;;21.33;83.18;100939.06;7381430;19;20026;-65
2022/08/03 02:15:07;;;;;;;9.18;1.45;;;;;;;21.32;82.66;100939.31;7381878;19;20015;-65
2022/08/03 02:17:37;;;;;;;13.00;0.88;;;;;;;21.31;83.06;100941.16;7384298;19;20539;-65
2022/08/03 02:20:09;;;;;;;8.13;1.33;;;;;;;21.34;83.21;100940.72;7383390;19;20018;-65
2022/08/03 02:22:42;;;;;;;12.98;1.10;;;;;;;21.35;83.10;100933.50;7385587;19;20010;-65
2022/08/03 02:25:10;;;;;;;4.32;0.65;;;;;;;21.33;83.26;100933.72;7385669;19;20018;-67
2022/08/03 02:27:42;;;;;;;6.70;0.82;;;;;;;21.31;82.70;100929.63;7386406;19;20045;-65
2022/08/03 02:30:12;;;;;;;10.10;0.93;;;;;;;21.29;83.11;100931.69;7386156;19;20007;-67
2022/08/03 02:32:41;;;;;;;4.78;0.80;;;;;;;21.26;83.06;100927.63;7386308;19;20019;-67
2022/08/03 02:35:16;;;;;;;5.70;0.70;;;;;;;21.26;83.20;100926.78;7378205;19;20022;-66
2022/08/03 02:37:47;;;;;;;5.82;1.58;;;;;;;21.27;83.56;100929.25;7379043;19;20016;-65
2022/08/03 02:40:17;;;;;;;7.93;0.90;;;;;;;21.27;83.52;100925.75;7376109;19;20021;-65
2022/08/03 02:42:48;;;;;;;6.30;0.75;;;;;;;21.27;83.19;100925.75;7376636;19;20451;-68
2022/08/03 02:45:19;;;;;;;7.07;1.27;;;;;;;21.28;83.32;100930.09;7378907;19;20015;-63
2022/08/03 02:47:47;;;;;;;3.13;0.60;;;;;;;21.29;83.24;100929.84;7379215;19;20066;-63
2022/08/03 02:50:21;;;;;;;10.18;0.82;;;;;;;21.32;83.07;100939.31;7377748;19;20542;-63
2022/08/03 02:52:51;;;;;;;3.90;1.05;;;;;;;21.29;82.99;100929.03;7383909;19;20021;-61
2022/08/03 02:55:21;;;;;;;5.82;0.80;;;;;;;21.31;82.69;100924.28;7384131;19;20032;-62
2022/08/03 02:57:49;;;;;;;5.40;0.70;;;;;;;21.36;83.75;100924.44;7382548;19;20015;-62
2022/08/03 03:00:17;;;;;;;3.40;0.60;;;;;;;21.36;82.62;100918.25;7385479;19;20010;-62
2022/08/03 03:02:57;;;;;;;8.00;1.60;;;;;;;21.38;82.85;100910.84;7383868;19;20018;-62
2022/08/03 03:05:26;;;;;;;2.83;0.60;;;;;;;21.40;82.44;100914.09;7381116;19;20022;-62
2022/08/03 03:08:23;;;;;;;5.53;0.60;;;;;;;21.41;82.49;100913.06;7384311;19;20082;-62
2022/08/03 03:10:58;;;;;;;6.22;0.80;;;;;;;21.40;82.37;100903.38;7384365;19;20014;-62
2022/08/03 03:13:27;;;;;;;13.63;6.18;;;;;;;21.43;83.03;100897.59;7379038;19;20024;-62
2022/08/03 03:15:59;;;;;;;6.55;1.20;;;;;;;21.43;83.42;100903.78;7384413;19;20430;-62
2022/08/03 03:18:33;;;;;;;6.47;0.70;;;;;;;21.43;82.60;100893.06;7382998;19;20009;-61
2022/08/03 03:21:02;;;;;;;5.93;0.93;;;;;;;21.42;82.60;100898.63;7383912;19;20014;-61
2022/08/03 03:23:30;;;;;;;6.43;0.65;;;;;;;21.41;82.76;100886.28;7378637;19;20347;-62
2022/08/03 03:26:01;;;;;;;7.95;1.00;;;;;;;21.39;82.44;100889.16;7384703;19;20360;-62
2022/08/03 03:28:29;;;;;;;2.97;0.90;;;;;;;21.39;82.46;100889.16;7384174;19;20117;-63
2022/08/03 03:30:57;;;;;;;12.77;0.95;;;;;;;21.40;82.22;100880.09;7385137;19;20082;-62
2022/08/03 03:33:24;;;;;;;6.95;2.03;;;;;;;21.41;82.94;100876.38;7384369;19;20019;-62
2022/08/03 03:35:55;;;;;;;4.18;0.70;;;;;;;21.42;82.45;100886.06;7381108;19;20014;-62
2022/08/03 03:38:22;;;;;;;7.57;0.80;;;;;;;21.43;82.50;100890.38;7383582;19;20018;-62
2022/08/03 03:40:49;;;;;;;7.07;0.60;;;;;;;21.43;82.32;100882.34;7381759;19;20507;-61
2022/08/03 03:43:17;;;;;;;9.15;0.70;;;;;;;21.38;82.41;100892.91;7382272;19;20541;-65
2022/08/03 03:45:46;;;;;;;5.05;0.63;;;;;;;21.35;82.27;100887.97;7380929;19;20197;-63
2022/08/03 03:48:13;;;;;;;5.90;1.35;;;;;;;21.31;82.89;100905.53;7383646;19;20014;-62
2022/08/03 03:50:42;;;;;;;9.50;1.15;;;;;;;21.30;82.84;100901.22;7380294;19;20079;-63
2022/08/03 03:53:10;;;;;;;3.13;0.60;;;;;;;21.33;83.19;100892.75;7382898;19;20010;-63
2022/08/03 03:55:39;;;;;;;8.75;0.70;;;;;;;21.39;83.06;100894.53;7382521;19;20066;-64
2022/08/03 03:58:25;;;;;;;6.63;0.75;;;;;;;21.39;82.31;100899.88;7385054;19;20043;-63
2022/08/03 04:00:52;;;;;;;5.88;0.57;;;;;;;21.36;82.51;100897.66;7390573;19;20490;-63
2022/08/03 04:03:20;;;;;;;4.97;0.60;;;;;;;21.33;82.82;100903.47;7389260;19;20359;-63
2022/08/03 04:11:57;;;;;;;5.07;0.90;;;;;;;21.31;83.11;100897.50;7389481;19;20014;-65
2022/08/03 04:14:34;;;;;;;6.90;0.60;;;;;;;21.31;83.44;100900.19;7382301;19;20509;-65
2022/08/03 04:17:04;;;;;;;3.60;0.65;;;;;;;21.30;82.88;100898.53;7390105;19;20118;-65
2022/08/03 04:19:44;;;;;;;7.43;1.70;;;;;;;21.32;82.96;100908.00;7385288;19;20022;-64
2022/08/03 04:22:13;;;;;;;6.38;0.63;;;;;;;21.34;83.02;100910.44;7388093;19;20398;-64
2022/08/03 04:24:48;;;;;;;8.18;1.00;;;;;;;21.38;83.10;100914.34;7390193;19;20018;-65
2022/08/03 04:27:19;;;;;;;6.15;0.73;;;;;;;21.41;82.94;100907.69;7391202;19;20025;-64
2022/08/03 04:29:50;;;;;;;7.20;1.30;;;;;;;21.46;83.37;100915.88;7390482;19;20638;-66
2022/08/03 04:32:19;;;;;;;7.18;0.80;;;;;;;21.50;82.96;100917.88;7389925;19;20034;-65
2022/08/03 04:34:46;;;;;;;6.43;0.80;;;;;;;21.50;82.32;100925.09;7387706;19;20068;-65
2022/08/03 04:37:36;;;;;;;7.00;0.63;;;;;;;21.52;82.14;100929.22;7387190;19;20042;-65
2022/08/03 04:40:08;;;;;;;6.35;1.27;;;;;;;21.53;82.23;100927.34;7388597;19;20385;-64
2022/08/03 04:42:38;;;;;;;5.72;0.85;;;;;;;21.53;82.26;100928.19;7389926;19;20074;-64
2022/08/03 04:45:07;;;;;;;4.82;0.85;;;;;;;21.51;82.16;100932.94;7389796;19;20014;-64
2022/08/03 04:47:35;;;;;;;4.57;1.10;;;;;;;21.48;82.47;100930.72;7389908;19;20078;-65
2022/08/03 04:50:03;;;;;;;4.10;0.80;;;;;;;21.48;82.63;100936.06;7384824;19;20043;-64
2022/08/03 04:52:38;;;;;;;5.18;0.70;;;;;;;21.49;82.87;100929.63;7389862;19;20582;-67
2022/08/03 04:55:05;;;;;;;2.63;0.50;;;;;;;21.52;82.82;100929.22;7388648;19;20449;-67
2022/08/03 04:57:32;;;;;;;4.65;0.50;;;;;;;21.55;82.56;100935.97;7387635;19;20485;-66
2022/08/03 04:59:59;;;;;;;10.02;0.50;;;;;;;21.56;82.14;100937.63;7386454;19;20015;-66
2022/08/03 05:02:30;;;;;;;5.47;0.50;;;;;;;21.54;81.98;100937.81;7389604;19;20043;-66
2022/08/03 05:04:58;;;;;;;6.20;1.05;;;;;;;21.51;82.46;100932.09;7383218;19;20029;-66
2022/08/03 05:07:25;;;;;;;5.95;0.70;;;;;;;21.51;82.82;100937.47;7389104;19;20011;-66
2022/08/03 05:10:04;;;;;;;5.45;0.68;;;;;;;21.52;83.13;100941.78;7387418;19;20010;-64
2022/08/03 05:12:51;;;;;;;4.60;0.55;;;;;;;21.50;82.26;100949.22;7389891;19;20042;-63
2022/08/03 05:15:21;;;;;;;3.70;0.50;;;;;;;21.43;82.47;100945.78;7383824;19;20367;-63
2022/08/03 05:17:48;;;;;;;3.05;0.75;;;;;;;21.38;82.60;100949.13;7388916;19;20014;-62
2022/08/03 05:20:15;;;;;;;5.03;0.45;;;;;;;21.31;83.20;100948.38;7383562;19;20501;-63
2022/08/03 05:22:51;;;;;;;4.78;0.88;;;;;;;21.29;84.00;100955.78;7386685;19;20459;-62
2022/08/03 05:25:18;;;;;;;4.05;0.55;;;;;;;21.30;83.78;100944.03;7386900;19;20035;-63
2022/08/03 05:27:49;;;;;;;5.03;0.43;;;;;;;21.36;84.11;100945.03;7387831;19;20037;-61
2022/08/03 05:30:16;;;;;;;3.05;0.47;;;;;;;21.38;84.07;100949.13;7385478;19;20010;-62
2022/08/03 05:32:58;;;;;;;4.88;0.40;;;;;;;21.40;83.67;100952.41;7388415;19;20015;-63
2022/08/03 05:35:27;;;;;;;7.35;0.40;;;;;;;21.41;83.64;100946.00;7385599;19;20006;-61
2022/08/03 05:38:14;;;;;;;3.88;0.82;;;;;;;21.43;83.64;100949.28;7383627;19;20019;-62
2022/08/03 05:40:55;;;;;;;2.00;0.50;;;;;;;21.47;83.09;100947.00;7387563;19;20006;-63
2022/08/03 05:43:43;;;;;;;4.43;0.80;;;;;;;21.48;83.26;100948.63;7388214;19;20312;-63
2022/08/03 05:46:10;;;;;;;5.75;0.68;;;;;;;21.48;83.38;100953.97;7387096;19;20018;-62
2022/08/03 05:48:39;;;;;;;4.80;0.70;;;;;;;21.43;83.58;100953.81;7383830;19;20137;-63
2022/08/03 05:51:06;;;;;;;6.78;0.60;;;;;;;21.43;83.30;100945.78;7386528;19;20371;-63
2022/08/03 05:53:34;;;;;;;3.85;0.52;;;;;;;21.42;83.83;100947.66;7384754;19;20015;-62
2022/08/03 05:56:00;;;;;;;4.25;0.80;;;;;;;21.44;83.70;100953.59;7384738;19;20017;-62
2022/08/03 05:58:45;;;;;;;7.10;0.50;;;;;;;21.46;83.51;100948.03;7384903;19;20033;-62
2022/08/03 06:01:14;;;;;;;5.35;1.48;;;;;;;21.48;83.73;100952.13;7386252;19;20022;-62
2022/08/03 06:03:41;;;;;;;7.20;1.25;;;;;;;21.50;83.79;100958.06;7383915;19;20037;-63
2022/08/03 06:06:08;;;;;;;5.30;0.70;;;;;;;21.52;83.87;100955.19;7385901;19;20478;-65
2022/08/03 06:08:35;;;;;;;2.47;0.50;;;;;;;21.55;83.60;100950.19;7385183;19;20031;-65
2022/08/03 06:11:03;;;;;;;2.92;0.50;;;;;;;21.56;83.38;100954.50;7386352;19;20014;-66
2022/08/03 06:13:30;;;;;;;4.68;0.65;;;;;;;21.56;83.45;100956.38;7384324;19;20007;-61
2022/08/03 06:15:56;;;;;;;6.43;0.50;;;;;;;21.58;83.43;100954.28;7381867;19;20019;-68
2022/08/03 06:18:24;;;;;;;5.05;0.50;;;;;;;21.58;83.94;100956.97;7384776;19;20123;-68
2022/08/03 06:20:51;;;;;;;1.85;0.38;;;;;;;21.58;83.49;100962.34;7380318;19;20015;-67
2022/08/03 06:23:19;;;;;;;3.55;0.50;;;;;;;21.57;84.28;100955.31;7383323;19;20010;-66
2022/08/03 06:25:46;;;;;;;6.80;0.95;;;;;;;21.59;84.71;100951.38;7382659;19;20086;-67
2022/08/03 06:28:13;;;;;;;2.25;0.50;;;;;;;21.58;84.75;100954.28;7385317;19;20011;-66
2022/08/03 06:31:01;;;;;;;8.85;0.70;;;;;;;21.58;84.72;100951.63;7383343;19;20015;-67
2022/08/03 06:33:28;;;;;;;3.80;1.35;;;;;;;21.62;84.63;100955.47;7384823;19;20015;-68
2022/08/03 06:36:15;;;;;;;4.30;1.15;;;;;;;21.61;84.37;100954.66;7383495;19;20022;-67
2022/08/03 06:38:42;;;;;;;2.40;0.70;;;;;;;21.60;84.72;100958.38;7384180;19;20014;-66
2022/08/03 06:41:09;;;;;;;7.40;1.02;;;;;;;21.61;84.57;100957.34;7385725;19;20485;-66
2022/08/03 06:43:36;;;;;;;5.70;2.15;;;;;;;21.63;84.37;100960.63;7384891;19;20036;-66
2022/08/03 06:46:23;;;;;;;4.35;1.30;;;;;;;21.63;84.83;100955.28;7385936;19;20368;-63
2022/08/03 06:48:52;;;;;;;7.38;1.70;;;;;;;21.65;84.48;100952.34;7382218;19;20086;-62
2022/08/03 06:51:19;;;;;;;4.95;1.80;;;;;;;21.70;85.43;100957.84;7386248;19;20359;-61
2022/08/03 06:53:45;;;;;;;4.22;1.40;;;;;;;21.71;85.35;100957.66;7382181;19;20022;-62
2022/08/03 06:56:12;;;;;;;4.30;1.50;;;;;;;21.75;85.05;100956.16;7385887;19;20122;-62
2022/08/03 06:58:39;;;;;;;6.15;1.75;;;;;;;21.78;84.39;100946.88;7383237;19;20453;-63
2022/08/03 07:01:06;;;;;;;6.97;1.77;;;;;;;21.78;83.92;100952.22;7384677;19;20034;-63
2022/08/03 07:03:33;;;;;;;5.15;1.80;;;;;;;21.75;84.51;100948.13;7381917;19;20467;-65
2022/08/03 07:06:01;;;;;;;5.50;1.50;;;;;;;21.75;84.23;100955.31;7385683;19;20039;-62
2022/08/03 07:08:29;;;;;;;6.63;2.08;;;;;;;21.77;84.07;100946.03;7384139;19;20126;-62
2022/08/03 07:10:59;;;;;;;7.38;1.80;;;;;;;21.79;83.90;100955.72;7385136;19;20036;-63
2022/08/03 07:13:26;;;;;;;5.57;1.63;;;;;;;21.83;84.74;100956.91;7385157;19;20018;-63
2022/08/03 07:15:53;;;;;;;2.90;1.35;;;;;;;21.86;83.95;100962.63;7384788;19;20083;-63
2022/08/03 07:18:22;;;;;;;4.57;1.60;;;;;;;21.90;83.52;100965.66;7385772;19;20011;-64
2022/08/03 07:20:55;;;;;;;4.57;1.65;;;;;;;21.88;83.24;100962.41;7380612;19;20021;-63
2022/08/03 07:23:22;;;;;;;6.63;3.22;;;;;;;21.90;83.70;100966.50;7383922;19;20021;-62
2022/08/03 07:25:49;;;;;;;6.68;1.70;;;;;;;21.93;83.64;100960.72;7382501;19;20461;-64
2022/08/03 07:28:16;;;;;;;4.03;1.70;;;;;;;21.97;83.47;100966.47;7384711;19;20075;-63
2022/08/03 07:30:43;;;;;;;6.65;1.63;;;;;;;22.02;83.47;100969.28;7383522;19;20025;-63
2022/08/03 07:33:10;;;;;;;8.25;1.23;;;;;;;22.01;83.16;100964.97;7384641;19;20010;-63
2022/08/03 07:35:38;;;;;;;3.92;1.73;;;;;;;22.02;83.21;100972.78;7380081;19;20018;-63
2022/08/03 07:38:04;;;;;;;3.55;1.45;;;;;;;22.05;83.43;100969.66;7380825;19;20097;-62
2022/08/03 07:40:31;;;;;;;3.83;1.55;;;;;;;22.09;83.53;100970.84;7381794;19;20050;-66
2022/08/03 07:42:58;;;;;;;4.25;1.50;;;;;;;22.11;83.19;100965.25;7382822;19;21203;-64
2022/08/03 07:45:25;;;;;;;4.20;1.25;;;;;;;22.14;82.69;100965.63;7383238;19;20015;-65
2022/08/03 07:47:53;;;;;;;3.75;0.93;;;;;;;22.15;82.67;100967.25;7384428;19;20017;-65
2022/08/03 07:50:21;;;;;;;4.50;2.65;;;;;;;22.17;82.59;100962.50;7379799;19;20015;-65
2022/08/03 07:52:52;;;;;;;3.95;1.33;;;;;;;22.25;83.65;100968.59;7381433;19;20014;-66
2022/08/03 07:55:21;;;;;;;3.42;1.00;;;;;;;22.28;83.02;100968.13;7382591;19;20015;-66
2022/08/03 07:58:18;;;;;;;6.03;1.20;;;;;;;22.29;82.57;100970.59;7384765;19;20014;-66
2022/08/03 08:00:51;;;;;;;1.88;0.60;;;;;;;22.31;81.87;100971.19;7379936;19;20382;-65
2022/08/03 08:03:20;;;;;;;2.67;0.90;;;;;;;22.34;81.90;100969.91;7383523;19;20159;-65
2022/08/03 08:05:48;;;;;;;4.97;1.77;;;;;;;22.37;82.23;100972.13;7380149;19;20114;-64
2022/08/03 08:08:15;;;;;;;3.45;1.20;;;;;;;22.41;82.76;100971.47;7382912;19;20070;-67
2022/08/03 08:10:41;;;;;;;3.72;0.60;;;;;;;22.44;82.20;100973.69;7382147;19;20399;-65
2022/08/03 08:13:24;;;;;;;2.03;0.60;;;;;;;22.47;81.62;100975.09;7382751;19;20793;-66
2022/08/03 08:15:51;;;;;;;1.13;0.82;;;;;;;22.48;81.17;100972.19;7384038;19;20402;-67
2022/08/03 08:18:17;;;;;;;2.78;0.60;;;;;;;22.46;81.32;100971.59;7383730;19;20013;-66
2022/08/03 08:20:45;;;;;;;2.00;0.50;;;;;;;22.46;81.24;100965.41;7378191;19;20481;-66
2022/08/03 08:23:11;;;;;;;4.70;0.90;;;;;;;22.51;81.83;100965.53;7382198;19;20074;-66
2022/08/03 08:25:58;;;;;;;5.90;0.68;;;;;;;22.52;81.76;100973.38;7381625;19;20033;-67
2022/08/03 08:28:25;;;;;;;3.60;1.08;;;;;;;22.55;80.88;100966.75;7383768;19;20011;-66
2022/08/03 08:30:59;;;;;;;2.65;0.60;;;;;;;22.56;81.37;100958.44;7380898;19;20840;-66
2022/08/03 08:33:25;;;;;;;2.88;0.50;;;;;;;22.58;80.87;100961.75;7383217;19;20036;-68
2022/08/03 08:36:12;;;;;;;5.68;1.10;;;;;;;22.63;81.35;100962.91;7382111;19;20015;-66
2022/08/03 08:38:43;;;;;;;2.63;1.23;;;;;;;22.65;81.35;100953.59;7381339;19;20041;-65
2022/08/03 08:41:11;;;;;;;3.05;0.70;;;;;;;22.67;80.90;100956.84;7380334;19;20043;-65
2022/08/03 08:43:38;;;;;;;3.90;0.80;;;;;;;22.68;80.88;100963.03;7383320;19;20361;-66
2022/08/03 08:46:07;;;;;;;3.10;1.60;;;;;;;22.67;80.87;100958.72;7389717;19;20014;-62
2022/08/03 08:48:39;;;;;;;3.42;1.15;;;;;;;22.68;81.56;100963.88;7387456;19;20018;-63
2022/08/03 08:51:08;;;;;;;2.40;0.85;;;;;;;22.72;80.94;100958.88;7389478;19;20007;-63
2022/08/03 08:53:37;;;;;;;2.92;0.65;;;;;;;22.74;80.77;100962.97;7387331;19;20500;-62
2022/08/03 08:56:06;;;;;;;3.38;0.80;;;;;;;22.78;80.72;100961.47;7389280;19;20461;-63
2022/08/03 08:58:37;;;;;;;3.10;0.85;;;;;;;22.82;80.55;100957.28;7388555;19;20014;-68
2022/08/03 09:01:04;;;;;;;2.88;1.00;;;;;;;22.81;80.90;100960.19;7386184;19;20019;-63
2022/08/03 09:03:33;;;;;;;2.63;0.98;;;;;;;22.82;80.61;100967.19;7386556;19;20011;-62
2022/08/03 09:06:00;;;;;;;4.00;0.85;;;;;;;22.84;80.34;100963.25;7385870;19;20015;-63
2022/08/03 09:08:29;;;;;;;3.13;1.00;;;;;;;22.86;80.26;100968.34;7388812;19;20088;-63
2022/08/03 09:10:57;;;;;;;15.68;2.03;;;;;;;22.88;80.13;100959.03;7388692;19;20025;-62
2022/08/03 09:13:24;;;;;;;3.08;0.95;;;;;;;22.90;79.90;100956.97;7388936;19;20020;-62
2022/08/03 09:16:10;;;;;;;1.90;0.90;;;;;;;22.99;80.67;100965.50;7388450;19;20016;-62
2022/08/03 09:18:38;;;;;;;3.47;1.20;;;;;;;23.00;79.94;100962.59;7384704;19;20111;-63
2022/08/03 09:21:18;;;;;;;1.38;0.80;;;;;;;23.09;79.64;100964.91;7387162;19;20014;-64
2022/08/03 09:23:58;;;;;;;1.40;0.70;;;;;;;23.16;79.46;100958.38;7386843;19;20539;-62
2022/08/03 09:26:30;;;;;;;3.58;1.27;;;;;;;23.21;79.11;100963.84;7387907;19;20010;-62
2022/08/03 09:29:01;;;;;;;6.75;2.42;;;;;;;23.24;78.68;100957.22;7387275;19;20031;-62
2022/08/03 09:31:42;;;;;;;7.40;2.42;;;;;;;23.27;79.26;100959.44;7388789;19;20013;-62
2022/08/03 09:34:12;;;;;;;4.38;1.33;;;;;;;23.29;78.86;100952.78;7386631;19;20014;-63
2022/08/03 09:36:50;;;;;;;1.38;0.70;;;;;;;23.31;78.58;100963.31;7385469;19;20499;-63
2022/08/03 09:39:25;;;;;;;4.70;1.50;;;;;;;23.30;78.35;100954.44;7386240;19;20474;-64
2022/08/03 09:42:08;;;;;;;1.67;0.80;;;;;;;23.32;78.55;100952.31;7385919;19;20022;-63
2022/08/03 09:44:37;;;;;;;17.55;1.75;;;;;;;23.31;78.50;100956.06;7386595;19;20420;-63
2022/08/03 09:47:05;;;;;;;5.63;1.13;;;;;;;23.33;78.92;100947.75;7386069;19;20482;-63
2022/08/03 09:49:32;;;;;;;4.68;0.75;;;;;;;23.33;78.96;100948.56;7384095;19;20022;-62
2022/08/03 09:52:12;;;;;;;1.77;0.60;;;;;;;23.34;78.60;100947.53;7386068;19;20020;-62
2022/08/03 09:55:06;;;;;;;1.10;0.60;;;;;;;23.35;78.80;100957.22;7384511;19;20014;-65
2022/08/03 09:58:09;;;;;;;4.32;1.30;;;;;;;23.36;78.58;100955.38;7386174;19;20122;-66
2022/08/03 10:01:08;;;;;;;9.07;0.98;;;;;;;23.39;78.01;100950.34;7385527;19;20021;-67
2022/08/03 10:03:58;;;;;;;2.58;1.05;;;;;;;23.42;78.16;100949.03;7381150;19;20029;-66
2022/08/03 10:06:30;;;;;;;3.90;0.90;;;;;;;23.41;78.19;100958.16;7384388;19;20014;-65
2022/08/03 10:09:14;;;;;;;2.88;0.90;;;;;;;23.41;78.23;100955.47;7385914;19;20010;-65
2022/08/03 10:11:43;;;;;;;3.60;0.70;;;;;;;23.43;77.84;100956.06;7383800;19;20090;-65
2022/08/03 10:14:17;;;;;;;2.67;0.70;;;;;;;23.47;78.12;100948.38;7384916;19;20021;-66
2022/08/03 10:16:46;;;;;;;2.97;0.93;;;;;;;23.50;78.28;100951.41;7385592;19;20334;-64
2022/08/03 10:19:14;;;;;;;2.50;1.00;;;;;;;23.52;77.93;100946.59;7382633;19;20576;-64
2022/08/03 10:21:48;;;;;;;4.55;0.70;;;;;;;23.53;78.26;100942.06;7384357;19;20016;-65
2022/08/03 10:24:19;;;;;;;3.15;1.00;;;;;;;23.55;77.80;100934.59;7385093;19;20489;-66
2022/08/03 10:26:48;;;;;;;1.97;0.70;;;;;;;23.59;77.64;100938.44;7383912;19;20007;-67
2022/08/03 10:29:24;;;;;;;3.75;0.77;;;;;;;23.64;77.96;100938.53;7382630;19;20014;-65
2022/08/03 10:31:55;;;;;;;1.83;0.65;;;;;;;23.68;77.47;100942.38;7384851;19;20018;-66
2022/08/03 10:34:28;;;;;;;2.47;0.75;;;;;;;23.70;77.55;100941.09;7382292;19;20420;-65
2022/08/03 10:36:58;;;;;;;2.45;0.80;;;;;;;23.76;77.32;100940.16;7384316;19;20018;-65
2022/08/03 10:39:29;;;;;;;30.27;16.30;;;;;;;23.83;77.68;100938.16;7384124;19;20070;-64
2022/08/03 10:41:57;;;;;;;4.13;1.55;;;;;;;23.91;77.04;100934.28;7384563;19;20406;-64
2022/08/03 10:44:35;;;;;;;3.63;0.65;;;;;;;23.96;76.36;100934.41;7384968;19;20544;-65
2022/08/03 10:47:03;;;;;;;2.40;0.65;;;;;;;24.01;76.49;100934.50;7384473;19;20033;-63
2022/08/03 10:49:31;;;;;;;1.10;0.57;;;;;;;24.03;76.42;100940.44;7381490;19;20015;-62
2022/08/03 10:52:03;;;;;;;2.88;0.80;;;;;;;24.06;76.48;100929.22;7384097;19;20033;-64
2022/08/03 10:57:54;;;;;;;2.58;0.80;;;;;;;24.14;76.24;100936.06;7366859;19;20299;-63
2022/08/03 11:00:27;;;;;;;1.25;0.55;;;;;;;24.18;75.59;100931.88;7372288;19;20489;-63
2022/08/03 11:03:01;;;;;;;4.80;0.80;;;;;;;24.23;75.54;100934.66;7382194;19;20007;-62
2022/08/03 11:05:34;;;;;;;3.60;0.88;;;;;;;24.27;75.85;100930.47;7359438;19;20022;-64
2022/08/03 11:08:33;;;;;;;1.70;0.50;;;;;;;24.34;76.00;100922.22;7378358;19;20042;-65
2022/08/03 11:11:15;;;;;;;2.58;0.60;;;;;;;24.40;75.54;100929.34;7382356;19;20014;-64
2022/08/03 11:14:06;;;;;;;1.98;0.40;;;;;;;24.44;75.12;100920.53;7382203;19;20014;-65
2022/08/03 11:16:35;;;;;;;2.50;0.60;;;;;;;24.48;74.75;100916.28;7382983;19;20010;-65
2022/08/03 11:19:06;;;;;;;1.58;0.50;;;;;;;24.53;74.83;100924.47;7380523;19;20459;-65
2022/08/03 11:21:51;;;;;;;3.35;0.47;;;;;;;24.56;74.78;100923.16;7383398;19;20015;-66
2022/08/03 11:24:38;;;;;;;2.55;0.60;;;;;;;24.58;74.24;100919.16;7383354;19;20308;-66
2022/08/03 11:27:14;;;;;;;3.83;0.80;;;;;;;24.60;73.85;100925.13;7382159;19;20014;-64
2022/08/03 11:29:56;;;;;;;3.47;0.95;;;;;;;24.63;73.69;100921.97;7383427;19;20048;-65
2022/08/03 11:32:57;;;;;;;1.98;0.40;;;;;;;24.68;74.09;100923.94;7383178;19;20030;-66
2022/08/03 11:35:32;;;;;;;1.67;0.30;;;;;;;24.73;74.09;100929.41;7374152;19;20470;-65
2022/08/03 11:38:01;;;;;;;2.92;0.43;;;;;;;24.74;73.63;100930.22;7377757;19;20007;-65
2022/08/03 11:40:47;;;;;;;3.75;0.50;;;;;;;24.72;73.29;100922.38;7379003;19;20102;-66
2022/08/03 11:43:28;;;;;;;2.25;0.40;;;;;;;24.71;73.82;100926.13;7380900;19;20023;-66
2022/08/03 11:46:12;;;;;;;2.47;0.68;;;;;;;24.67;73.20;100925.81;7384127;19;20017;-66
2022/08/03 11:49:03;;;;;;;2.53;0.50;;;;;;;24.66;73.79;100926.03;7380603;19;20464;-65
2022/08/03 11:51:37;;;;;;;2.70;0.50;;;;;;;24.64;73.92;100926.28;7381750;19;20010;-64
2022/08/03 11:54:05;;;;;;;4.70;0.82;;;;;;;24.66;74.21;100926.03;7381606;19;20011;-64
2022/08/03 11:56:47;;;;;;;2.55;0.60;;;;;;;24.69;73.84;100917.47;7382591;19;20097;-65
2022/08/03 11:59:16;;;;;;;2.92;0.50;;;;;;;24.75;73.32;100923.75;7380619;19;20106;-63